sensor_id;sensor_type;location;lat;lon;timestamp;temperature;humidity
418;DHT22;49;48.530;9.200;2023-01-04T00:00:11;6.90;52.60
418;DHT22;49;48.530;9.200;2023-01-04T00:02:39;6.90;52.00
418;DHT22;49;48.530;9.200;2023-01-04T00:05:07;7.00;51.90
418;DHT22;49;48.530;9.200;2023-01-04T00:07:37;6.90;52.00
418;DHT22;49;48.530;9.200;2023-01-04T00:10:07;6.90;53.10
418;DHT22;49;48.530;9.200;2023-01-04T00:12:35;6.80;53.20
418;DHT22;49;48.530;9.200;2023-01-04T00:15:07;6.70;54.10
418;DHT22;49;48.530;9.200;2023-01-04T00:17:35;6.70;57.90
418;DHT22;49;48.530;9.200;2023-01-04T00:20:04;6.70;58.50
418;DHT22;49;48.530;9.200;2023-01-04T00:22:32;6.80;56.70
418;DHT22;49;48.530;9.200;2023-01-04T00:25:00;6.80;59.70
418;DHT22;49;48.530;9.200;2023-01-04T00:27:27;6.90;60.60
418;DHT22;49;48.530;9.200;2023-01-04T00:29:55;6.80;61.30
418;DHT22;49;48.530;9.200;2023-01-04T00:32:25;6.80;61.30
418;DHT22;49;48.530;9.200;2023-01-04T00:34:55;6.90;59.10
418;DHT22;49;48.530;9.200;2023-01-04T00:37:23;6.90;61.40
418;DHT22;49;48.530;9.200;2023-01-04T00:39:54;6.80;62.60
418;DHT22;49;48.530;9.200;2023-01-04T00:42:37;7.00;65.50
418;DHT22;49;48.530;9.200;2023-01-04T00:45:07;6.90;62.60
418;DHT22;49;48.530;9.200;2023-01-04T00:47:36;6.80;66.20
418;DHT22;49;48.530;9.200;2023-01-04T00:50:04;6.80;62.80
418;DHT22;49;48.530;9.200;2023-01-04T00:52:33;7.10;63.50
418;DHT22;49;48.530;9.200;2023-01-04T00:55:04;7.10;59.80
418;DHT22;49;48.530;9.200;2023-01-04T00:57:34;6.70;61.10
418;DHT22;49;48.530;9.200;2023-01-04T01:00:03;6.60;61.10
418;DHT22;49;48.530;9.200;2023-01-04T01:02:31;6.60;61.20
418;DHT22;49;48.530;9.200;2023-01-04T01:05:00;6.60;60.00
418;DHT22;49;48.530;9.200;2023-01-04T01:07:28;6.90;57.60
418;DHT22;49;48.530;9.200;2023-01-04T01:10:08;6.70;57.90
418;DHT22;49;48.530;9.200;2023-01-04T01:12:36;6.70;59.50
418;DHT22;49;48.530;9.200;2023-01-04T01:15:09;6.80;61.60
418;DHT22;49;48.530;9.200;2023-01-04T01:17:36;6.70;60.90
418;DHT22;49;48.530;9.200;2023-01-04T01:20:06;6.90;63.40
418;DHT22;49;48.530;9.200;2023-01-04T01:22:34;6.70;60.20
418;DHT22;49;48.530;9.200;2023-01-04T01:25:04;6.80;61.40
418;DHT22;49;48.530;9.200;2023-01-04T01:27:32;6.90;59.50
418;DHT22;49;48.530;9.200;2023-01-04T01:30:01;6.90;74.00
418;DHT22;49;48.530;9.200;2023-01-04T01:32:29;7.00;61.60
418;DHT22;49;48.530;9.200;2023-01-04T01:34:57;6.90;59.80
418;DHT22;49;48.530;9.200;2023-01-04T01:37:27;7.00;60.70
418;DHT22;49;48.530;9.200;2023-01-04T01:39:59;7.10;58.90
418;DHT22;49;48.530;9.200;2023-01-04T01:42:30;7.10;57.60
418;DHT22;49;48.530;9.200;2023-01-04T01:44:59;6.90;57.50
418;DHT22;49;48.530;9.200;2023-01-04T01:47:35;6.80;57.50
418;DHT22;49;48.530;9.200;2023-01-04T01:50:05;6.80;57.60
418;DHT22;49;48.530;9.200;2023-01-04T01:52:39;6.90;57.20
418;DHT22;49;48.530;9.200;2023-01-04T01:55:11;6.70;59.50
418;DHT22;49;48.530;9.200;2023-01-04T01:57:40;6.70;58.70
418;DHT22;49;48.530;9.200;2023-01-04T02:00:11;6.90;59.40
418;DHT22;49;48.530;9.200;2023-01-04T02:02:48;6.80;57.70
418;DHT22;49;48.530;9.200;2023-01-04T02:05:19;6.80;56.80
418;DHT22;49;48.530;9.200;2023-01-04T02:07:49;6.70;56.30
418;DHT22;49;48.530;9.200;2023-01-04T02:10:17;6.80;56.00
418;DHT22;49;48.530;9.200;2023-01-04T02:12:45;6.80;56.30
418;DHT22;49;48.530;9.200;2023-01-04T02:15:13;6.60;56.10
418;DHT22;49;48.530;9.200;2023-01-04T02:17:45;6.60;56.90
418;DHT22;49;48.530;9.200;2023-01-04T02:20:27;6.80;61.30
418;DHT22;49;48.530;9.200;2023-01-04T02:32:08;6.50;62.50
418;DHT22;49;48.530;9.200;2023-01-04T02:34:43;6.50;65.00
418;DHT22;49;48.530;9.200;2023-01-04T02:37:19;6.70;62.10
418;DHT22;49;48.530;9.200;2023-01-04T02:39:58;6.40;61.10
418;DHT22;49;48.530;9.200;2023-01-04T02:42:35;6.30;62.60
418;DHT22;49;48.530;9.200;2023-01-04T02:45:31;6.20;64.50
418;DHT22;49;48.530;9.200;2023-01-04T02:48:03;6.30;63.30
418;DHT22;49;48.530;9.200;2023-01-04T02:50:52;6.20;62.90
418;DHT22;49;48.530;9.200;2023-01-04T02:53:24;6.10;63.60
418;DHT22;49;48.530;9.200;2023-01-04T02:56:01;6.00;62.40
418;DHT22;49;48.530;9.200;2023-01-04T02:58:50;5.90;61.30
418;DHT22;49;48.530;9.200;2023-01-04T03:01:30;6.00;61.70
418;DHT22;49;48.530;9.200;2023-01-04T03:04:31;5.60;62.30
418;DHT22;49;48.530;9.200;2023-01-04T03:07:23;6.00;62.80
418;DHT22;49;48.530;9.200;2023-01-04T03:09:56;6.30;65.20
418;DHT22;49;48.530;9.200;2023-01-04T03:12:32;6.00;70.80
418;DHT22;49;48.530;9.200;2023-01-04T03:15:04;6.00;64.20
418;DHT22;49;48.530;9.200;2023-01-04T03:17:39;6.10;66.50
418;DHT22;49;48.530;9.200;2023-01-04T03:20:16;6.30;64.10
418;DHT22;49;48.530;9.200;2023-01-04T03:22:49;6.10;63.50
418;DHT22;49;48.530;9.200;2023-01-04T03:25:42;6.30;62.70
418;DHT22;49;48.530;9.200;2023-01-04T03:28:31;6.60;60.80
418;DHT22;49;48.530;9.200;2023-01-04T03:31:20;6.40;60.00
418;DHT22;49;48.530;9.200;2023-01-04T03:34:05;6.50;59.70
418;DHT22;49;48.530;9.200;2023-01-04T03:36:57;6.50;59.50
418;DHT22;49;48.530;9.200;2023-01-04T03:39:34;6.30;59.20
418;DHT22;49;48.530;9.200;2023-01-04T03:42:27;6.20;59.60
418;DHT22;49;48.530;9.200;2023-01-04T03:45:15;5.90;61.30
418;DHT22;49;48.530;9.200;2023-01-04T03:48:07;6.00;62.20
418;DHT22;49;48.530;9.200;2023-01-04T03:51:08;6.10;67.50
418;DHT22;49;48.530;9.200;2023-01-04T03:53:47;6.00;60.90
418;DHT22;49;48.530;9.200;2023-01-04T03:56:18;6.10;59.80
418;DHT22;49;48.530;9.200;2023-01-04T03:58:49;6.10;59.50
418;DHT22;49;48.530;9.200;2023-01-04T04:01:17;5.90;59.50
418;DHT22;49;48.530;9.200;2023-01-04T04:03:46;5.80;59.80
418;DHT22;49;48.530;9.200;2023-01-04T04:06:31;5.90;59.00
418;DHT22;49;48.530;9.200;2023-01-04T04:09:16;5.90;59.00
418;DHT22;49;48.530;9.200;2023-01-04T04:11:43;5.80;59.70
418;DHT22;49;48.530;9.200;2023-01-04T04:14:13;6.00;58.90
418;DHT22;49;48.530;9.200;2023-01-04T04:16:41;5.70;62.30
418;DHT22;49;48.530;9.200;2023-01-04T04:19:11;5.80;60.00
418;DHT22;49;48.530;9.200;2023-01-04T04:21:39;6.10;60.40
418;DHT22;49;48.530;9.200;2023-01-04T04:24:07;6.10;59.10
418;DHT22;49;48.530;9.200;2023-01-04T04:26:40;6.30;61.90
418;DHT22;49;48.530;9.200;2023-01-04T04:29:10;6.50;64.20
418;DHT22;49;48.530;9.200;2023-01-04T04:31:37;6.80;71.50
418;DHT22;49;48.530;9.200;2023-01-04T04:34:08;7.10;61.00
418;DHT22;49;48.530;9.200;2023-01-04T04:36:37;6.50;63.50
418;DHT22;49;48.530;9.200;2023-01-04T04:39:05;6.80;65.40
418;DHT22;49;48.530;9.200;2023-01-04T04:41:34;7.00;68.90
418;DHT22;49;48.530;9.200;2023-01-04T04:44:05;7.00;63.10
418;DHT22;49;48.530;9.200;2023-01-04T04:46:39;7.00;62.40
418;DHT22;49;48.530;9.200;2023-01-04T04:49:12;7.10;62.10
418;DHT22;49;48.530;9.200;2023-01-04T04:51:40;7.30;61.80
418;DHT22;49;48.530;9.200;2023-01-04T04:54:14;7.30;61.80
418;DHT22;49;48.530;9.200;2023-01-04T04:56:44;7.20;61.70
418;DHT22;49;48.530;9.200;2023-01-04T04:59:14;7.00;62.90
418;DHT22;49;48.530;9.200;2023-01-04T05:01:43;6.60;64.20
418;DHT22;49;48.530;9.200;2023-01-04T05:04:11;6.50;63.90
418;DHT22;49;48.530;9.200;2023-01-04T05:06:43;6.80;61.90
418;DHT22;49;48.530;9.200;2023-01-04T05:09:13;6.40;64.40
418;DHT22;49;48.530;9.200;2023-01-04T05:11:42;6.40;66.20
418;DHT22;49;48.530;9.200;2023-01-04T05:14:28;6.60;66.30
418;DHT22;49;48.530;9.200;2023-01-04T05:16:55;6.80;63.90
418;DHT22;49;48.530;9.200;2023-01-04T05:19:23;6.80;64.30
418;DHT22;49;48.530;9.200;2023-01-04T05:21:50;7.00;65.50
418;DHT22;49;48.530;9.200;2023-01-04T05:24:18;6.90;64.50
418;DHT22;49;48.530;9.200;2023-01-04T05:26:45;6.90;64.90
418;DHT22;49;48.530;9.200;2023-01-04T05:29:12;7.10;64.20
418;DHT22;49;48.530;9.200;2023-01-04T05:32:01;7.40;64.80
418;DHT22;49;48.530;9.200;2023-01-04T05:34:27;7.60;62.70
418;DHT22;49;48.530;9.200;2023-01-04T05:36:55;7.50;61.60
418;DHT22;49;48.530;9.200;2023-01-04T05:39:22;7.20;65.10
418;DHT22;49;48.530;9.200;2023-01-04T05:41:49;7.40;63.90
418;DHT22;49;48.530;9.200;2023-01-04T05:44:34;7.50;63.00
418;DHT22;49;48.530;9.200;2023-01-04T05:47:03;7.80;69.00
418;DHT22;49;48.530;9.200;2023-01-04T05:49:31;7.80;66.80
418;DHT22;49;48.530;9.200;2023-01-04T05:51:58;7.90;62.40
418;DHT22;49;48.530;9.200;2023-01-04T05:54:25;7.80;64.80
418;DHT22;49;48.530;9.200;2023-01-04T05:56:53;8.20;63.20
418;DHT22;49;48.530;9.200;2023-01-04T05:59:20;8.00;61.70
418;DHT22;49;48.530;9.200;2023-01-04T06:01:50;8.10;63.20
418;DHT22;49;48.530;9.200;2023-01-04T06:04:19;8.10;65.50
418;DHT22;49;48.530;9.200;2023-01-04T06:06:46;8.10;64.60
418;DHT22;49;48.530;9.200;2023-01-04T06:09:14;8.10;63.30
418;DHT22;49;48.530;9.200;2023-01-04T06:11:41;8.20;61.20
418;DHT22;49;48.530;9.200;2023-01-04T06:14:09;8.10;61.40
418;DHT22;49;48.530;9.200;2023-01-04T06:16:36;7.70;61.40
418;DHT22;49;48.530;9.200;2023-01-04T06:19:04;7.50;64.60
418;DHT22;49;48.530;9.200;2023-01-04T06:21:33;7.50;64.60
418;DHT22;49;48.530;9.200;2023-01-04T06:24:01;7.60;68.10
418;DHT22;49;48.530;9.200;2023-01-04T06:26:28;7.80;70.60
418;DHT22;49;48.530;9.200;2023-01-04T06:28:57;7.90;63.20
418;DHT22;49;48.530;9.200;2023-01-04T06:31:25;8.10;64.70
418;DHT22;49;48.530;9.200;2023-01-04T06:33:55;8.30;61.60
418;DHT22;49;48.530;9.200;2023-01-04T06:36:22;8.40;60.10
418;DHT22;49;48.530;9.200;2023-01-04T06:38:52;8.30;59.20
418;DHT22;49;48.530;9.200;2023-01-04T06:41:20;8.30;60.00
418;DHT22;49;48.530;9.200;2023-01-04T06:43:49;8.50;66.20
418;DHT22;49;48.530;9.200;2023-01-04T06:46:24;8.60;59.00
418;DHT22;49;48.530;9.200;2023-01-04T06:48:51;8.70;58.00
418;DHT22;49;48.530;9.200;2023-01-04T06:51:25;8.80;56.40
418;DHT22;49;48.530;9.200;2023-01-04T06:54:04;8.90;57.40
418;DHT22;49;48.530;9.200;2023-01-04T06:56:33;8.70;58.10
418;DHT22;49;48.530;9.200;2023-01-04T06:59:03;8.50;59.20
418;DHT22;49;48.530;9.200;2023-01-04T07:01:34;8.50;58.70
418;DHT22;49;48.530;9.200;2023-01-04T07:04:23;8.60;58.60
418;DHT22;49;48.530;9.200;2023-01-04T07:06:55;8.80;60.40
418;DHT22;49;48.530;9.200;2023-01-04T07:09:39;8.90;58.30
418;DHT22;49;48.530;9.200;2023-01-04T07:12:42;8.40;58.10
418;DHT22;49;48.530;9.200;2023-01-04T07:15:33;8.00;60.10
418;DHT22;49;48.530;9.200;2023-01-04T07:18:17;7.90;61.60
418;DHT22;49;48.530;9.200;2023-01-04T07:21:23;8.50;60.40
418;DHT22;49;48.530;9.200;2023-01-04T07:24:12;8.60;58.30
418;DHT22;49;48.530;9.200;2023-01-04T07:33:41;9.20;56.60
418;DHT22;49;48.530;9.200;2023-01-04T07:36:25;9.50;54.90
418;DHT22;49;48.530;9.200;2023-01-04T07:38:58;9.70;54.80
418;DHT22;49;48.530;9.200;2023-01-04T07:41:41;9.80;52.50
418;DHT22;49;48.530;9.200;2023-01-04T07:44:30;9.80;52.60
418;DHT22;49;48.530;9.200;2023-01-04T07:47:50;9.80;52.10
418;DHT22;49;48.530;9.200;2023-01-04T07:50:42;9.90;51.60
418;DHT22;49;48.530;9.200;2023-01-04T07:53:16;10.00;49.80
418;DHT22;49;48.530;9.200;2023-01-04T07:56:03;10.10;49.70
418;DHT22;49;48.530;9.200;2023-01-04T07:58:33;10.10;49.40
418;DHT22;49;48.530;9.200;2023-01-04T08:01:08;10.10;49.70
418;DHT22;49;48.530;9.200;2023-01-04T08:03:50;10.20;50.50
418;DHT22;49;48.530;9.200;2023-01-04T08:06:24;10.30;50.80
418;DHT22;49;48.530;9.200;2023-01-04T08:08:54;10.30;49.80
418;DHT22;49;48.530;9.200;2023-01-04T08:11:25;10.30;49.80
418;DHT22;49;48.530;9.200;2023-01-04T08:13:53;10.40;49.90
418;DHT22;49;48.530;9.200;2023-01-04T08:16:23;10.40;49.80
418;DHT22;49;48.530;9.200;2023-01-04T08:18:59;10.60;51.90
418;DHT22;49;48.530;9.200;2023-01-04T08:21:33;10.50;50.00
418;DHT22;49;48.530;9.200;2023-01-04T08:24:02;10.60;50.10
418;DHT22;49;48.530;9.200;2023-01-04T08:26:30;10.50;50.70
418;DHT22;49;48.530;9.200;2023-01-04T08:28:57;10.60;52.70
418;DHT22;49;48.530;9.200;2023-01-04T08:31:26;10.60;50.70
418;DHT22;49;48.530;9.200;2023-01-04T08:33:54;10.80;52.30
418;DHT22;49;48.530;9.200;2023-01-04T08:36:23;10.80;53.30
418;DHT22;49;48.530;9.200;2023-01-04T08:38:53;11.00;50.70
418;DHT22;49;48.530;9.200;2023-01-04T08:41:20;11.30;49.30
418;DHT22;49;48.530;9.200;2023-01-04T08:43:48;11.30;50.80
418;DHT22;49;48.530;9.200;2023-01-04T08:46:15;11.00;48.70
418;DHT22;49;48.530;9.200;2023-01-04T08:48:42;11.30;48.30
418;DHT22;49;48.530;9.200;2023-01-04T08:51:12;11.40;45.80
418;DHT22;49;48.530;9.200;2023-01-04T08:53:40;11.50;46.20
418;DHT22;49;48.530;9.200;2023-01-04T08:56:09;11.60;44.10
418;DHT22;49;48.530;9.200;2023-01-04T08:58:36;11.60;44.10
418;DHT22;49;48.530;9.200;2023-01-04T09:01:05;11.70;42.90
418;DHT22;49;48.530;9.200;2023-01-04T09:03:32;11.90;45.40
418;DHT22;49;48.530;9.200;2023-01-04T09:06:03;11.80;42.20
418;DHT22;49;48.530;9.200;2023-01-04T09:08:31;11.90;42.60
418;DHT22;49;48.530;9.200;2023-01-04T09:11:14;12.00;41.60
418;DHT22;49;48.530;9.200;2023-01-04T09:13:42;11.90;40.60
418;DHT22;49;48.530;9.200;2023-01-04T09:16:11;11.80;43.00
418;DHT22;49;48.530;9.200;2023-01-04T09:18:38;11.90;39.60
418;DHT22;49;48.530;9.200;2023-01-04T09:21:06;12.00;39.80
418;DHT22;49;48.530;9.200;2023-01-04T09:23:35;12.20;38.50
418;DHT22;49;48.530;9.200;2023-01-04T09:26:04;12.30;38.10
418;DHT22;49;48.530;9.200;2023-01-04T09:28:34;12.40;37.60
418;DHT22;49;48.530;9.200;2023-01-04T09:31:04;12.50;39.70
418;DHT22;49;48.530;9.200;2023-01-04T09:33:32;12.50;36.20
418;DHT22;49;48.530;9.200;2023-01-04T09:36:00;12.30;36.60
418;DHT22;49;48.530;9.200;2023-01-04T09:38:29;12.00;39.50
418;DHT22;49;48.530;9.200;2023-01-04T09:41:02;12.30;37.50
418;DHT22;49;48.530;9.200;2023-01-04T09:43:38;12.40;37.00
418;DHT22;49;48.530;9.200;2023-01-04T09:46:08;12.00;35.00
418;DHT22;49;48.530;9.200;2023-01-04T09:48:37;12.00;35.50
418;DHT22;49;48.530;9.200;2023-01-04T09:51:12;12.10;33.60
418;DHT22;49;48.530;9.200;2023-01-04T09:53:44;12.00;34.20
418;DHT22;49;48.530;9.200;2023-01-04T09:56:23;12.20;35.80
418;DHT22;49;48.530;9.200;2023-01-04T09:58:54;12.20;35.10
418;DHT22;49;48.530;9.200;2023-01-04T10:01:24;12.20;34.10
418;DHT22;49;48.530;9.200;2023-01-04T10:03:57;12.30;38.00
418;DHT22;49;48.530;9.200;2023-01-04T10:06:28;12.20;36.00
418;DHT22;49;48.530;9.200;2023-01-04T10:09:01;12.00;36.60
418;DHT22;49;48.530;9.200;2023-01-04T10:11:38;12.10;35.10
418;DHT22;49;48.530;9.200;2023-01-04T10:14:28;12.10;35.70
418;DHT22;49;48.530;9.200;2023-01-04T10:17:09;11.90;37.10
418;DHT22;49;48.530;9.200;2023-01-04T10:19:51;12.20;38.30
418;DHT22;49;48.530;9.200;2023-01-04T10:22:44;12.00;36.60
418;DHT22;49;48.530;9.200;2023-01-04T10:25:22;12.20;41.30
418;DHT22;49;48.530;9.200;2023-01-04T10:28:02;12.40;37.00
418;DHT22;49;48.530;9.200;2023-01-04T10:30:39;12.40;43.50
418;DHT22;49;48.530;9.200;2023-01-04T10:33:13;12.50;37.10
418;DHT22;49;48.530;9.200;2023-01-04T10:35:42;12.50;36.50
418;DHT22;49;48.530;9.200;2023-01-04T10:38:15;12.70;40.30
418;DHT22;49;48.530;9.200;2023-01-04T10:40:45;12.80;34.80
418;DHT22;49;48.530;9.200;2023-01-04T10:43:27;13.00;34.70
418;DHT22;49;48.530;9.200;2023-01-04T10:46:01;13.10;36.70
418;DHT22;49;48.530;9.200;2023-01-04T10:48:36;13.50;36.70
418;DHT22;49;48.530;9.200;2023-01-04T10:51:07;13.20;33.50
418;DHT22;49;48.530;9.200;2023-01-04T10:53:37;12.80;36.20
418;DHT22;49;48.530;9.200;2023-01-04T10:56:14;13.30;33.30
418;DHT22;49;48.530;9.200;2023-01-04T10:58:46;13.20;33.80
418;DHT22;49;48.530;9.200;2023-01-04T11:01:19;13.10;35.10
418;DHT22;49;48.530;9.200;2023-01-04T11:03:51;13.20;34.60
418;DHT22;49;48.530;9.200;2023-01-04T11:06:25;13.30;33.50
418;DHT22;49;48.530;9.200;2023-01-04T11:08:56;13.40;34.90
418;DHT22;49;48.530;9.200;2023-01-04T11:11:26;13.60;33.20
418;DHT22;49;48.530;9.200;2023-01-04T11:13:56;13.30;34.00
418;DHT22;49;48.530;9.200;2023-01-04T11:16:27;13.30;34.60
418;DHT22;49;48.530;9.200;2023-01-04T11:18:56;13.40;38.50
418;DHT22;49;48.530;9.200;2023-01-04T11:21:26;13.40;35.80
418;DHT22;49;48.530;9.200;2023-01-04T11:23:58;13.50;35.60
418;DHT22;49;48.530;9.200;2023-01-04T11:26:31;13.60;36.60
418;DHT22;49;48.530;9.200;2023-01-04T11:29:11;13.70;34.50
418;DHT22;49;48.530;9.200;2023-01-04T11:31:47;13.70;35.50
418;DHT22;49;48.530;9.200;2023-01-04T11:34:15;13.80;36.70
418;DHT22;49;48.530;9.200;2023-01-04T11:36:43;13.70;37.30
418;DHT22;49;48.530;9.200;2023-01-04T11:39:18;13.60;37.00
418;DHT22;49;48.530;9.200;2023-01-04T11:41:59;13.30;38.40
418;DHT22;49;48.530;9.200;2023-01-04T11:44:29;13.20;39.40
418;DHT22;49;48.530;9.200;2023-01-04T11:47:15;13.40;40.10
418;DHT22;49;48.530;9.200;2023-01-04T11:49:42;13.40;41.00
418;DHT22;49;48.530;9.200;2023-01-04T11:52:28;13.70;39.50
418;DHT22;49;48.530;9.200;2023-01-04T11:54:56;13.50;40.40
418;DHT22;49;48.530;9.200;2023-01-04T11:57:41;13.40;42.10
418;DHT22;49;48.530;9.200;2023-01-04T12:00:13;13.50;40.80
418;DHT22;49;48.530;9.200;2023-01-04T12:02:42;13.80;41.60
418;DHT22;49;48.530;9.200;2023-01-04T12:05:18;14.00;41.10
418;DHT22;49;48.530;9.200;2023-01-04T12:07:45;14.00;40.00
418;DHT22;49;48.530;9.200;2023-01-04T12:10:20;13.90;39.40
418;DHT22;49;48.530;9.200;2023-01-04T12:12:48;13.60;43.80
418;DHT22;49;48.530;9.200;2023-01-04T12:15:18;13.90;40.10
418;DHT22;49;48.530;9.200;2023-01-04T12:17:53;13.80;43.70
418;DHT22;49;48.530;9.200;2023-01-04T12:20:26;13.90;41.40
418;DHT22;49;48.530;9.200;2023-01-04T12:22:53;14.20;39.30
418;DHT22;49;48.530;9.200;2023-01-04T12:25:27;14.20;39.30
418;DHT22;49;48.530;9.200;2023-01-04T12:27:56;14.30;39.30
418;DHT22;49;48.530;9.200;2023-01-04T12:30:36;14.20;38.40
418;DHT22;49;48.530;9.200;2023-01-04T12:33:38;14.30;39.20
418;DHT22;49;48.530;9.200;2023-01-04T12:36:06;14.70;38.80
418;DHT22;49;48.530;9.200;2023-01-04T12:42:19;15.30;35.60
418;DHT22;49;48.530;9.200;2023-01-04T12:45:20;14.80;35.50
418;DHT22;49;48.530;9.200;2023-01-04T12:47:56;14.60;37.00
418;DHT22;49;48.530;9.200;2023-01-04T12:53:54;14.70;39.70
418;DHT22;49;48.530;9.200;2023-01-04T12:56:21;14.50;39.50
418;DHT22;49;48.530;9.200;2023-01-04T13:02:17;14.00;40.10
418;DHT22;49;48.530;9.200;2023-01-04T13:04:46;14.20;40.50
418;DHT22;49;48.530;9.200;2023-01-04T13:07:17;14.10;40.60
418;DHT22;49;48.530;9.200;2023-01-04T13:09:50;14.40;41.10
418;DHT22;49;48.530;9.200;2023-01-04T13:12:53;14.80;40.50
418;DHT22;49;48.530;9.200;2023-01-04T13:15:36;14.70;38.50
418;DHT22;49;48.530;9.200;2023-01-04T13:18:32;14.10;40.10
418;DHT22;49;48.530;9.200;2023-01-04T13:21:01;14.10;41.80
418;DHT22;49;48.530;9.200;2023-01-04T13:23:29;14.20;42.90
418;DHT22;49;48.530;9.200;2023-01-04T13:26:28;14.00;43.60
418;DHT22;49;48.530;9.200;2023-01-04T13:29:10;14.00;42.30
418;DHT22;49;48.530;9.200;2023-01-04T13:31:49;14.20;42.00
418;DHT22;49;48.530;9.200;2023-01-04T13:34:21;14.30;41.20
418;DHT22;49;48.530;9.200;2023-01-04T13:37:03;14.10;42.80
418;DHT22;49;48.530;9.200;2023-01-04T13:39:34;13.80;44.50
418;DHT22;49;48.530;9.200;2023-01-04T13:42:02;13.80;44.70
418;DHT22;49;48.530;9.200;2023-01-04T13:45:03;14.00;44.40
418;DHT22;49;48.530;9.200;2023-01-04T13:47:35;14.10;44.40
418;DHT22;49;48.530;9.200;2023-01-04T13:50:21;14.30;42.10
418;DHT22;49;48.530;9.200;2023-01-04T13:52:51;14.50;41.70
418;DHT22;49;48.530;9.200;2023-01-04T13:55:20;14.40;41.40
418;DHT22;49;48.530;9.200;2023-01-04T13:57:55;14.30;43.10
418;DHT22;49;48.530;9.200;2023-01-04T14:00:23;14.20;43.00
418;DHT22;49;48.530;9.200;2023-01-04T14:03:10;14.20;43.40
418;DHT22;49;48.530;9.200;2023-01-04T14:05:44;14.40;43.20
418;DHT22;49;48.530;9.200;2023-01-04T14:08:18;14.50;43.10
418;DHT22;49;48.530;9.200;2023-01-04T14:10:46;14.80;41.40
418;DHT22;49;48.530;9.200;2023-01-04T14:13:16;14.40;41.60
418;DHT22;49;48.530;9.200;2023-01-04T14:15:44;14.30;43.90
418;DHT22;49;48.530;9.200;2023-01-04T14:18:25;14.30;43.10
418;DHT22;49;48.530;9.200;2023-01-04T14:20:54;14.10;44.10
418;DHT22;49;48.530;9.200;2023-01-04T14:23:26;14.30;44.00
418;DHT22;49;48.530;9.200;2023-01-04T14:25:53;14.50;42.90
418;DHT22;49;48.530;9.200;2023-01-04T14:28:41;14.50;42.40
418;DHT22;49;48.530;9.200;2023-01-04T14:31:29;14.50;42.20
418;DHT22;49;48.530;9.200;2023-01-04T14:33:58;14.30;43.90
418;DHT22;49;48.530;9.200;2023-01-04T14:36:27;14.20;44.70
418;DHT22;49;48.530;9.200;2023-01-04T14:39:10;14.20;44.70
418;DHT22;49;48.530;9.200;2023-01-04T14:41:39;14.30;44.80
418;DHT22;49;48.530;9.200;2023-01-04T14:44:12;14.20;44.50
418;DHT22;49;48.530;9.200;2023-01-04T14:46:43;14.00;46.00
418;DHT22;49;48.530;9.200;2023-01-04T14:49:11;14.20;46.10
418;DHT22;49;48.530;9.200;2023-01-04T14:51:44;14.40;44.40
418;DHT22;49;48.530;9.200;2023-01-04T14:54:13;14.10;45.50
418;DHT22;49;48.530;9.200;2023-01-04T14:56:41;14.00;46.20
418;DHT22;49;48.530;9.200;2023-01-04T14:59:11;14.10;47.00
418;DHT22;49;48.530;9.200;2023-01-04T15:01:38;14.10;45.50
418;DHT22;49;48.530;9.200;2023-01-04T15:04:05;14.10;46.30
418;DHT22;49;48.530;9.200;2023-01-04T15:06:33;14.10;47.80
418;DHT22;49;48.530;9.200;2023-01-04T15:09:02;14.30;45.90
418;DHT22;49;48.530;9.200;2023-01-04T15:11:32;14.30;46.50
418;DHT22;49;48.530;9.200;2023-01-04T15:13:59;14.10;45.80
418;DHT22;49;48.530;9.200;2023-01-04T15:16:27;14.00;47.30
418;DHT22;49;48.530;9.200;2023-01-04T15:18:54;14.30;47.40
418;DHT22;49;48.530;9.200;2023-01-04T15:21:21;14.40;45.10
418;DHT22;49;48.530;9.200;2023-01-04T15:23:52;14.30;46.20
418;DHT22;49;48.530;9.200;2023-01-04T15:26:20;14.30;45.70
418;DHT22;49;48.530;9.200;2023-01-04T15:28:47;14.40;45.10
418;DHT22;49;48.530;9.200;2023-01-04T15:31:14;14.10;46.70
418;DHT22;49;48.530;9.200;2023-01-04T15:33:41;14.10;46.30
418;DHT22;49;48.530;9.200;2023-01-04T15:36:16;14.10;46.30
418;DHT22;49;48.530;9.200;2023-01-04T15:38:47;14.30;45.00
418;DHT22;49;48.530;9.200;2023-01-04T15:41:16;14.50;44.10
418;DHT22;49;48.530;9.200;2023-01-04T15:44:00;14.20;45.80
418;DHT22;49;48.530;9.200;2023-01-04T15:46:29;14.10;47.20
418;DHT22;49;48.530;9.200;2023-01-04T15:48:56;14.00;46.90
418;DHT22;49;48.530;9.200;2023-01-04T15:51:23;13.70;48.90
418;DHT22;49;48.530;9.200;2023-01-04T15:53:51;13.60;51.00
418;DHT22;49;48.530;9.200;2023-01-04T15:56:19;13.90;49.60
418;DHT22;49;48.530;9.200;2023-01-04T15:58:50;14.10;47.80
418;DHT22;49;48.530;9.200;2023-01-04T16:01:24;14.10;49.70
418;DHT22;49;48.530;9.200;2023-01-04T16:03:51;14.20;46.40
418;DHT22;49;48.530;9.200;2023-01-04T16:06:18;14.30;46.60
418;DHT22;49;48.530;9.200;2023-01-04T16:08:45;14.30;46.60
418;DHT22;49;48.530;9.200;2023-01-04T16:11:18;14.40;45.40
418;DHT22;49;48.530;9.200;2023-01-04T16:13:46;14.00;47.80
418;DHT22;49;48.530;9.200;2023-01-04T16:16:35;13.90;47.90
418;DHT22;49;48.530;9.200;2023-01-04T16:19:03;13.90;48.50
418;DHT22;49;48.530;9.200;2023-01-04T16:21:30;14.10;47.40
418;DHT22;49;48.530;9.200;2023-01-04T16:23:58;14.20;48.00
418;DHT22;49;48.530;9.200;2023-01-04T16:26:50;14.50;46.10
418;DHT22;49;48.530;9.200;2023-01-04T16:29:36;14.70;44.80
418;DHT22;49;48.530;9.200;2023-01-04T16:32:20;14.70;45.00
418;DHT22;49;48.530;9.200;2023-01-04T16:34:50;14.40;46.30
418;DHT22;49;48.530;9.200;2023-01-04T16:37:25;14.20;47.50
418;DHT22;49;48.530;9.200;2023-01-04T16:39:52;13.90;49.10
418;DHT22;49;48.530;9.200;2023-01-04T16:42:21;14.00;49.20
418;DHT22;49;48.530;9.200;2023-01-04T16:44:48;14.00;48.80
418;DHT22;49;48.530;9.200;2023-01-04T16:47:17;14.30;47.40
418;DHT22;49;48.530;9.200;2023-01-04T16:49:44;14.00;50.00
418;DHT22;49;48.530;9.200;2023-01-04T16:52:11;13.90;49.50
418;DHT22;49;48.530;9.200;2023-01-04T16:54:42;13.80;53.00
418;DHT22;49;48.530;9.200;2023-01-04T16:57:11;14.20;48.30
418;DHT22;49;48.530;9.200;2023-01-04T16:59:38;14.10;48.40
418;DHT22;49;48.530;9.200;2023-01-04T17:02:05;14.40;46.60
418;DHT22;49;48.530;9.200;2023-01-04T17:04:34;14.50;49.60
418;DHT22;49;48.530;9.200;2023-01-04T17:07:01;14.60;47.60
418;DHT22;49;48.530;9.200;2023-01-04T17:09:28;14.50;45.80
418;DHT22;49;48.530;9.200;2023-01-04T17:11:55;14.50;46.70
418;DHT22;49;48.530;9.200;2023-01-04T17:14:28;14.40;46.00
418;DHT22;49;48.530;9.200;2023-01-04T17:16:59;14.60;44.40
418;DHT22;49;48.530;9.200;2023-01-04T17:19:28;14.60;45.90
418;DHT22;49;48.530;9.200;2023-01-04T17:21:56;14.40;45.60
418;DHT22;49;48.530;9.200;2023-01-04T17:24:24;14.30;45.50
418;DHT22;49;48.530;9.200;2023-01-04T17:26:51;14.30;46.50
418;DHT22;49;48.530;9.200;2023-01-04T17:29:18;14.00;47.70
418;DHT22;49;48.530;9.200;2023-01-04T17:31:45;13.90;48.40
418;DHT22;49;48.530;9.200;2023-01-04T17:34:13;14.00;49.00
418;DHT22;49;48.530;9.200;2023-01-04T17:36:42;14.10;48.90
418;DHT22;49;48.530;9.200;2023-01-04T17:39:11;14.00;49.00
418;DHT22;49;48.530;9.200;2023-01-04T17:41:38;13.70;50.80
418;DHT22;49;48.530;9.200;2023-01-04T17:44:06;13.70;51.10
418;DHT22;49;48.530;9.200;2023-01-04T17:46:35;13.60;52.10
418;DHT22;49;48.530;9.200;2023-01-04T17:49:04;13.60;52.30
418;DHT22;49;48.530;9.200;2023-01-04T17:51:31;13.80;50.80
418;DHT22;49;48.530;9.200;2023-01-04T17:54:01;14.00;50.30
418;DHT22;49;48.530;9.200;2023-01-04T17:56:30;14.00;48.90
418;DHT22;49;48.530;9.200;2023-01-04T17:59:00;14.00;51.10
418;DHT22;49;48.530;9.200;2023-01-04T18:01:28;14.10;49.80
418;DHT22;49;48.530;9.200;2023-01-04T18:03:57;14.00;49.30